Terminal Aerodrome Forecast
Issued by NWS Sterling, VA

Home | Current Version | Previous Version | Text Only | Print | Product List | Glossary On
Versions: 1 2 3 4 5 6 7 8 9 10 11 12 13 14 15 16 17 18 19 20 21 22 23 24 25
000
FTUS41 KLWX 211720
TAFIAD
TAF
KIAD 211720Z 2118/2224 21012G22KT P6SM FEW035 SCT200
     FM212300 22009KT P6SM SCT035 BKN110
     FM220300 29005KT P6SM SCT025 OVC060
     FM220600 01008KT 5SM -DZ BR SCT025 OVC030
     FM220900 01008KT 5SM -RADZ BR SCT025 OVC030
     FM221500 03007KT 1 1/2SM -RADZ BR BKN008 OVC030=

USA.gov is the U.S. government's official web portal to all federal, state and local government web resources and services.